createdAt,value
2023-07-18T00:00:15.892Z,0.85
2023-07-18T00:02:45.944Z,0.60
2023-07-18T00:05:13.814Z,0.95
2023-07-18T00:07:41.976Z,0.50
2023-07-18T00:10:12.889Z,1.15
2023-07-18T00:12:40.604Z,0.43
2023-07-18T00:15:10.640Z,0.90
2023-07-18T00:17:38.747Z,0.90
2023-07-18T00:20:09.614Z,0.90
2023-07-18T00:22:39.426Z,0.90
2023-07-18T00:25:06.596Z,0.80
2023-07-18T00:27:33.193Z,0.90
2023-07-18T00:29:59.698Z,1.20
2023-07-18T00:32:26.672Z,0.68
2023-07-18T00:34:57.452Z,1.02
2023-07-18T00:37:24.379Z,0.85
2023-07-18T00:39:51.680Z,1.35
2023-07-18T00:42:18.359Z,1.00
2023-07-18T00:44:44.869Z,0.77
2023-07-18T00:47:11.470Z,0.75
2023-07-18T00:49:38.157Z,1.00
2023-07-18T00:52:07.388Z,1.10
2023-07-18T00:54:35.100Z,0.70
2023-07-18T00:57:02.944Z,0.70
2023-07-18T00:59:30.851Z,1.25
2023-07-18T01:01:57.409Z,0.93
2023-07-18T01:04:23.925Z,0.57
2023-07-18T01:06:51.115Z,0.63
2023-07-18T01:09:17.670Z,0.90
2023-07-18T01:11:44.273Z,1.10
2023-07-18T01:14:10.990Z,0.55
2023-07-18T01:16:37.575Z,0.95
2023-07-18T01:19:04.035Z,1.00
2023-07-18T01:21:30.636Z,0.85
2023-07-18T01:23:57.175Z,0.63
2023-07-18T01:26:24.966Z,0.80
2023-07-18T01:28:51.434Z,0.98
2023-07-18T01:31:18.080Z,1.00
2023-07-18T01:33:45.063Z,0.95
2023-07-18T01:36:11.578Z,1.00
2023-07-18T01:38:38.065Z,0.85
2023-07-18T01:41:04.634Z,0.95
2023-07-18T01:43:31.180Z,0.98
2023-07-18T01:46:00.794Z,0.45
2023-07-18T01:48:27.623Z,0.60
2023-07-18T01:50:54.529Z,0.70
2023-07-18T01:53:21.051Z,1.10
2023-07-18T01:55:47.604Z,1.00
2023-07-18T01:58:14.182Z,0.80
2023-07-18T02:00:40.742Z,0.73
2023-07-18T02:03:07.437Z,0.77
2023-07-18T02:05:34.412Z,0.80
2023-07-18T02:08:01.385Z,1.05
2023-07-18T02:10:28.283Z,0.88
2023-07-18T02:12:57.844Z,0.98
2023-07-18T02:15:24.491Z,1.05
2023-07-18T02:17:52.512Z,0.80
2023-07-18T02:20:19.652Z,1.20
2023-07-18T02:22:47.160Z,1.00
2023-07-18T02:25:16.694Z,1.05
2023-07-18T02:27:46.136Z,0.85
2023-07-18T02:30:14.176Z,1.20
2023-07-18T02:32:41.627Z,1.50
2023-07-18T02:35:09.451Z,1.10
2023-07-18T02:37:36.386Z,0.95
2023-07-18T02:40:11.085Z,1.15
2023-07-18T02:42:38.854Z,0.80
2023-07-18T02:45:07.496Z,0.75
2023-07-18T02:47:34.257Z,0.70
2023-07-18T02:50:00.813Z,0.80
2023-07-18T02:52:27.338Z,0.98
2023-07-18T02:54:54.930Z,1.10
2023-07-18T02:57:21.562Z,1.05
2023-07-18T02:59:48.102Z,1.08
2023-07-18T03:02:14.712Z,1.48
2023-07-18T03:04:41.206Z,0.95
2023-07-18T03:07:08.342Z,1.17
2023-07-18T03:09:35.652Z,1.42
2023-07-18T03:12:02.546Z,1.00
2023-07-18T03:14:30.225Z,1.33
2023-07-18T03:16:57.128Z,1.30
2023-07-18T03:19:24.084Z,1.23
2023-07-18T03:21:51.021Z,1.10
2023-07-18T03:24:18.902Z,1.20
2023-07-18T03:26:46.239Z,0.85
2023-07-18T03:29:12.879Z,1.30
2023-07-18T03:31:40.653Z,1.25
2023-07-18T03:34:07.917Z,1.40
2023-07-18T03:36:38.205Z,1.25
2023-07-18T03:39:05.080Z,1.42
2023-07-18T03:41:34.473Z,1.60
2023-07-18T03:44:01.229Z,1.05
2023-07-18T03:46:27.804Z,1.23
2023-07-18T03:48:54.651Z,1.20
2023-07-18T03:51:22.084Z,1.20
2023-07-18T03:53:52.380Z,1.20
2023-07-18T03:56:21.078Z,1.35
2023-07-18T03:58:47.593Z,1.25
2023-07-18T04:01:14.226Z,1.10
2023-07-18T04:03:40.865Z,1.00
2023-07-18T04:06:07.886Z,1.00
2023-07-18T04:08:34.632Z,1.35
2023-07-18T04:11:01.538Z,1.85
2023-07-18T04:13:28.454Z,1.40
2023-07-18T04:15:55.981Z,1.10
2023-07-18T04:18:23.433Z,1.60
2023-07-18T04:20:50.563Z,1.05
2023-07-18T04:23:18.122Z,1.23
2023-07-18T04:25:58.369Z,1.00
2023-07-18T04:28:25.273Z,1.30
2023-07-18T04:30:51.865Z,1.02
2023-07-18T04:33:18.447Z,1.25
2023-07-18T04:35:46.940Z,1.10
2023-07-18T04:38:16.728Z,1.38
2023-07-18T04:40:43.719Z,1.30
2023-07-18T04:43:11.684Z,1.25
2023-07-18T04:45:46.338Z,1.40
2023-07-18T04:48:17.659Z,1.02
2023-07-18T04:50:45.336Z,1.15
2023-07-18T04:53:12.513Z,1.75
2023-07-18T04:55:40.109Z,1.40
2023-07-18T04:58:08.842Z,1.65
2023-07-18T05:00:35.830Z,1.70
2023-07-18T05:03:02.667Z,1.52
2023-07-18T05:05:30.577Z,1.65
2023-07-18T05:07:59.657Z,1.40
2023-07-18T05:10:26.539Z,1.50
2023-07-18T05:12:54.054Z,1.40
2023-07-18T05:15:20.936Z,1.42
2023-07-18T05:17:49.082Z,1.23
2023-07-18T05:20:16.034Z,1.67
2023-07-18T05:22:44.512Z,1.88
2023-07-18T05:25:13.146Z,1.50
2023-07-18T05:27:41.600Z,1.65
2023-07-18T05:30:26.014Z,1.90
2023-07-18T05:32:55.844Z,1.42
2023-07-18T05:35:22.930Z,1.77
2023-07-18T05:37:49.539Z,1.60
2023-07-18T05:40:19.197Z,1.73
2023-07-18T05:42:47.897Z,1.35
2023-07-18T05:45:14.407Z,1.55
2023-07-18T05:47:41.161Z,1.63
2023-07-18T05:50:08.489Z,1.40
2023-07-18T05:52:35.442Z,1.67
2023-07-18T05:55:02.790Z,1.42
2023-07-18T05:57:29.483Z,1.52
2023-07-18T05:59:56.021Z,1.20
2023-07-18T06:02:23.049Z,1.33
2023-07-18T06:04:50.191Z,2.08
2023-07-18T06:07:17.528Z,1.63
2023-07-18T06:09:44.310Z,1.58
2023-07-18T06:12:13.292Z,1.67
2023-07-18T06:14:40.269Z,1.95
2023-07-18T06:17:07.388Z,1.33
2023-07-18T06:19:34.093Z,1.40
2023-07-18T06:22:00.694Z,1.75
2023-07-18T06:24:27.223Z,1.55
2023-07-18T06:26:53.671Z,1.42
2023-07-18T06:29:21.081Z,1.45
2023-07-18T06:31:49.140Z,1.58
2023-07-18T06:34:19.294Z,1.77
2023-07-18T06:36:47.045Z,1.70
2023-07-18T06:39:14.980Z,1.05
2023-07-18T06:41:41.969Z,1.45
2023-07-18T06:44:10.231Z,1.65
2023-07-18T06:46:38.653Z,1.58
2023-07-18T06:49:06.225Z,1.60
2023-07-18T06:51:32.727Z,1.52
2023-07-18T06:53:59.300Z,2.42
2023-07-18T06:56:25.993Z,1.45
2023-07-18T06:58:52.464Z,1.42
2023-07-18T07:01:19.236Z,1.52
2023-07-18T07:03:46.157Z,1.85
2023-07-18T07:06:13.835Z,1.65
2023-07-18T07:08:40.567Z,1.83
2023-07-18T07:11:08.671Z,1.38
2023-07-18T07:13:36.666Z,1.52
2023-07-18T07:16:04.552Z,1.08
2023-07-18T07:18:31.750Z,1.48
2023-07-18T07:20:58.555Z,1.80
2023-07-18T07:23:25.192Z,2.08
2023-07-18T07:25:52.166Z,2.05
2023-07-18T07:28:18.727Z,1.92
2023-07-18T07:30:45.259Z,1.35
2023-07-18T07:33:12.009Z,1.60
2023-07-18T07:35:38.544Z,1.80
2023-07-18T07:38:06.487Z,1.67
2023-07-18T07:40:33.049Z,1.98
2023-07-18T07:42:59.511Z,1.55
2023-07-18T07:45:26.543Z,1.10
2023-07-18T07:47:53.466Z,1.30
2023-07-18T07:50:20.075Z,1.55
2023-07-18T07:52:46.802Z,1.65
2023-07-18T07:55:14.281Z,1.33
2023-07-18T07:57:41.056Z,1.83
2023-07-18T08:00:10.804Z,1.38
2023-07-18T08:02:37.382Z,1.33
2023-07-18T08:05:04.513Z,1.25
2023-07-18T08:07:31.308Z,1.30
2023-07-18T08:09:58.671Z,1.13
2023-07-18T08:12:25.255Z,1.00
2023-07-18T08:14:51.722Z,1.30
2023-07-18T08:17:18.749Z,1.15
2023-07-18T08:19:45.280Z,1.15
2023-07-18T08:22:11.832Z,1.35
2023-07-18T08:24:39.117Z,0.82
2023-07-18T08:27:06.096Z,1.00
2023-07-18T08:29:34.597Z,0.80
2023-07-18T08:34:27.804Z,0.80
2023-07-18T08:36:54.549Z,1.20
2023-07-18T08:39:21.213Z,1.70
2023-07-18T08:41:52.772Z,1.10
2023-07-18T08:44:20.339Z,1.20
2023-07-18T08:46:48.407Z,1.00
2023-07-18T08:49:17.647Z,0.95
2023-07-18T08:51:49.512Z,1.20
2023-07-18T08:54:16.073Z,1.05
2023-07-18T08:56:46.526Z,0.93
2023-07-18T08:59:13.913Z,1.52
2023-07-18T09:01:50.892Z,1.10
2023-07-18T09:04:18.085Z,0.85
2023-07-18T09:06:50.588Z,1.02
2023-07-18T09:09:27.735Z,0.90
2023-07-18T09:11:55.876Z,0.90
2023-07-18T09:14:27.566Z,1.33
2023-07-18T09:17:00.380Z,0.85
2023-07-18T09:19:40.488Z,0.82
2023-07-18T09:22:11.884Z,1.23
2023-07-18T09:24:39.172Z,1.50
2023-07-18T09:27:07.742Z,1.17
2023-07-18T09:29:34.321Z,1.30
2023-07-18T09:32:01.196Z,1.60
2023-07-18T09:34:29.036Z,1.40
2023-07-18T09:37:00.798Z,1.23
2023-07-18T09:39:28.693Z,0.73
2023-07-18T09:41:56.660Z,1.13
2023-07-18T09:44:33.023Z,1.48
2023-07-18T09:47:01.831Z,1.33
2023-07-18T09:49:33.044Z,1.17
2023-07-18T09:52:05.708Z,1.13
2023-07-18T09:54:33.355Z,1.80
2023-07-18T09:57:04.454Z,1.50
2023-07-18T09:59:31.702Z,1.00
2023-07-18T10:01:58.382Z,1.27
2023-07-18T10:04:25.489Z,1.02
2023-07-18T10:06:52.760Z,1.20
2023-07-18T10:09:20.133Z,0.80
2023-07-18T10:12:10.554Z,0.90
2023-07-18T10:14:42.841Z,1.15
2023-07-18T10:17:09.589Z,1.02
2023-07-18T10:19:49.193Z,1.00
2023-07-18T10:22:30.077Z,0.80
2023-07-18T10:25:08.080Z,0.80
2023-07-18T10:27:40.101Z,1.05
2023-07-18T10:30:12.496Z,1.70
2023-07-18T10:32:40.567Z,0.77
2023-07-18T10:35:12.136Z,1.23
2023-07-18T10:37:43.561Z,1.02
2023-07-18T10:40:11.583Z,1.10
2023-07-18T10:42:39.156Z,0.88
2023-07-18T10:45:07.659Z,1.13
2023-07-18T10:47:37.412Z,0.68
2023-07-18T10:50:05.575Z,0.75
2023-07-18T10:52:33.893Z,0.80
2023-07-18T10:55:01.688Z,1.13
2023-07-18T10:57:38.584Z,0.77
2023-07-18T11:00:07.293Z,0.95
2023-07-18T11:02:39.786Z,1.35
2023-07-18T11:05:12.940Z,1.50
2023-07-18T11:07:42.491Z,1.23
2023-07-18T11:10:10.820Z,1.17
2023-07-18T11:12:37.620Z,1.30
2023-07-18T11:15:07.793Z,1.30
2023-07-18T11:17:35.059Z,1.05
2023-07-18T11:20:03.842Z,1.10
2023-07-18T11:22:32.847Z,1.10
2023-07-18T11:25:00.776Z,1.35
2023-07-18T11:27:28.310Z,1.00
2023-07-18T11:30:07.798Z,0.60
2023-07-18T11:32:42.642Z,0.88
2023-07-18T11:35:27.841Z,1.38
2023-07-18T11:37:55.587Z,1.17
2023-07-18T11:40:26.612Z,1.38
2023-07-18T11:42:56.318Z,1.27
2023-07-18T11:45:26.831Z,1.02
2023-07-18T11:47:58.657Z,1.60
2023-07-18T11:50:30.402Z,1.27
2023-07-18T11:52:59.245Z,1.30
2023-07-18T11:55:26.393Z,1.13
2023-07-18T11:57:57.050Z,1.25
2023-07-18T12:00:25.943Z,0.90
2023-07-18T12:02:53.483Z,1.30
2023-07-18T12:05:20.165Z,1.48
2023-07-18T12:07:46.959Z,1.08
2023-07-18T12:10:15.643Z,1.00
2023-07-18T12:12:42.347Z,1.33
2023-07-18T12:15:10.149Z,0.82
2023-07-18T12:17:38.814Z,1.02
2023-07-18T12:20:06.481Z,1.38
2023-07-18T12:22:33.517Z,1.30
2023-07-18T12:25:02.736Z,1.17
2023-07-18T12:27:29.540Z,1.20
2023-07-18T12:29:58.716Z,0.80
2023-07-18T12:32:29.051Z,0.93
2023-07-18T12:34:57.977Z,1.33
2023-07-18T12:37:24.597Z,1.02
2023-07-18T12:39:51.158Z,0.90
2023-07-18T12:42:17.766Z,0.93
2023-07-18T12:44:45.870Z,1.00
2023-07-18T12:47:13.266Z,1.33
2023-07-18T12:52:09.830Z,0.93
2023-07-18T12:54:36.346Z,1.23
2023-07-18T12:57:03.655Z,1.00
2023-07-18T12:59:30.132Z,1.20
2023-07-18T13:01:57.331Z,1.08
2023-07-18T13:04:24.782Z,1.10
2023-07-18T13:06:51.880Z,0.90
2023-07-18T13:09:21.271Z,1.00
2023-07-18T13:11:48.092Z,0.77
2023-07-18T13:14:18.496Z,1.20
2023-07-18T13:16:45.347Z,1.08
2023-07-18T13:19:12.150Z,1.98
2023-07-18T13:21:38.813Z,1.15
2023-07-18T13:24:07.992Z,1.20
2023-07-18T13:26:34.699Z,1.25
2023-07-18T13:29:01.562Z,1.08
2023-07-18T13:31:28.327Z,0.90
2023-07-18T13:33:55.483Z,1.33
2023-07-18T13:36:23.015Z,1.27
2023-07-18T13:38:49.794Z,1.38
2023-07-18T13:41:16.433Z,1.20
2023-07-18T13:43:44.126Z,0.55
2023-07-18T13:46:16.431Z,0.93
2023-07-18T13:48:43.797Z,0.73
2023-07-18T13:51:10.563Z,1.08
2023-07-18T13:53:37.037Z,0.85
2023-07-18T13:56:03.738Z,1.20
2023-07-18T13:58:30.347Z,0.90
2023-07-18T14:00:58.325Z,1.08
2023-07-18T14:03:35.013Z,0.93
2023-07-18T14:06:04.318Z,0.82
2023-07-18T14:08:31.410Z,0.85
2023-07-18T14:10:58.530Z,1.08
2023-07-18T14:13:24.976Z,1.02
2023-07-18T14:15:51.743Z,0.75
2023-07-18T14:18:18.483Z,0.93
2023-07-18T14:20:45.753Z,0.65
2023-07-18T14:23:12.346Z,0.90
2023-07-18T14:25:38.960Z,0.80
2023-07-18T14:28:05.544Z,0.90
2023-07-18T14:30:32.056Z,0.82
2023-07-18T14:32:58.541Z,0.52
2023-07-18T14:35:25.172Z,0.60
2023-07-18T14:37:52.047Z,0.73
2023-07-18T14:40:18.937Z,0.77
2023-07-18T14:42:45.780Z,0.82
2023-07-18T14:45:12.504Z,1.15
2023-07-18T14:47:39.105Z,0.82
2023-07-18T14:50:06.188Z,0.60
2023-07-18T14:52:32.774Z,0.90
2023-07-18T14:55:00.331Z,0.80
2023-07-18T14:57:27.385Z,0.60
2023-07-18T14:59:54.755Z,0.73
2023-07-18T15:02:21.665Z,1.48
2023-07-18T15:04:48.362Z,1.08
2023-07-18T15:07:15.136Z,0.90
2023-07-18T15:09:41.732Z,1.25
2023-07-18T15:12:08.623Z,0.77
2023-07-18T15:14:35.041Z,0.63
2023-07-18T15:17:01.533Z,1.10
2023-07-18T15:19:28.105Z,0.70
2023-07-18T15:21:54.791Z,0.82
2023-07-18T15:24:21.795Z,1.40
2023-07-18T15:26:48.717Z,0.90
2023-07-18T15:29:15.177Z,0.60
2023-07-18T15:31:41.904Z,0.90
2023-07-18T15:34:09.598Z,0.88
2023-07-18T15:36:36.455Z,1.00
2023-07-18T15:39:03.083Z,1.10
2023-07-18T15:41:29.641Z,1.35
2023-07-18T15:43:57.513Z,1.10
2023-07-18T15:46:24.863Z,1.10
2023-07-18T15:48:51.507Z,1.30
2023-07-18T15:51:18.015Z,1.48
2023-07-18T15:53:44.565Z,1.58
2023-07-18T15:56:15.292Z,1.20
2023-07-18T15:58:42.440Z,1.50
2023-07-18T16:01:09.373Z,1.15
2023-07-18T16:03:36.365Z,1.23
2023-07-18T16:06:03.559Z,1.33
2023-07-18T16:08:30.338Z,1.40
2023-07-18T16:10:56.932Z,1.17
2023-07-18T16:13:23.474Z,1.20
2023-07-18T16:15:50.205Z,1.30
2023-07-18T16:18:16.767Z,1.27
2023-07-18T16:20:45.099Z,1.58
2023-07-18T16:23:11.800Z,1.40
2023-07-18T16:25:38.552Z,1.63
2023-07-18T16:28:06.402Z,1.38
2023-07-18T16:30:34.258Z,1.17
2023-07-18T16:33:00.819Z,1.10
2023-07-18T16:35:27.440Z,1.17
2023-07-18T16:37:54.014Z,1.15
2023-07-18T16:40:21.353Z,1.45
2023-07-18T16:42:47.935Z,1.27
2023-07-18T16:45:14.443Z,1.25
2023-07-18T16:47:41.007Z,1.25
2023-07-18T16:50:08.032Z,1.02
2023-07-18T16:52:34.448Z,1.30
2023-07-18T16:55:00.923Z,1.15
2023-07-18T16:57:27.522Z,1.02
2023-07-18T16:59:54.047Z,1.13
2023-07-18T17:02:20.576Z,1.20
2023-07-18T17:04:49.852Z,1.17
2023-07-18T17:07:18.094Z,0.95
2023-07-18T17:09:44.635Z,0.93
2023-07-18T17:12:11.083Z,0.90
2023-07-18T17:14:37.488Z,0.65
2023-07-18T17:17:04.318Z,0.80
2023-07-18T17:19:31.126Z,1.08
2023-07-18T17:21:58.586Z,0.88
2023-07-18T17:24:25.044Z,1.05
2023-07-18T17:26:52.594Z,1.02
2023-07-18T17:29:20.359Z,1.00
2023-07-18T17:31:46.853Z,0.82
2023-07-18T17:34:13.301Z,1.00
2023-07-18T17:36:39.883Z,1.05
2023-07-18T17:39:08.829Z,1.17
2023-07-18T17:41:35.602Z,1.00
2023-07-18T17:44:04.653Z,1.10
2023-07-18T17:46:31.226Z,1.02
2023-07-18T17:48:57.762Z,1.17
2023-07-18T17:51:24.411Z,0.60
2023-07-18T17:53:53.160Z,0.65
2023-07-18T17:56:21.286Z,0.63
2023-07-18T17:58:47.774Z,1.00
2023-07-18T18:01:14.376Z,0.70
2023-07-18T18:03:42.024Z,0.73
2023-07-18T18:06:11.668Z,0.73
2023-07-18T18:08:38.213Z,0.73
2023-07-18T18:11:05.094Z,0.65
2023-07-18T18:13:31.729Z,0.75
2023-07-18T18:16:08.372Z,0.75
2023-07-18T18:18:36.358Z,0.60
2023-07-18T18:21:04.076Z,0.93
2023-07-18T18:23:38.700Z,0.80
2023-07-18T18:26:07.613Z,0.80
2023-07-18T18:28:34.339Z,0.75
2023-07-18T18:31:01.319Z,0.80
2023-07-18T18:33:28.039Z,0.80
2023-07-18T18:35:55.902Z,0.68
2023-07-18T18:38:22.821Z,0.60
2023-07-18T18:40:49.367Z,0.60
2023-07-18T18:43:16.119Z,0.85
2023-07-18T18:45:43.669Z,0.52
2023-07-18T18:48:10.987Z,0.65
2023-07-18T18:50:37.985Z,0.80
2023-07-18T18:53:04.497Z,0.70
2023-07-18T18:55:33.526Z,0.30
2023-07-18T18:58:01.042Z,0.50
2023-07-18T19:00:29.052Z,0.75
2023-07-18T19:02:59.393Z,0.85
2023-07-18T19:05:26.726Z,0.77
2023-07-18T19:07:53.729Z,0.80
2023-07-18T19:10:20.413Z,0.57
2023-07-18T19:12:47.065Z,0.80
2023-07-18T19:15:13.768Z,0.75
2023-07-18T19:17:40.719Z,0.88
2023-07-18T19:20:08.058Z,0.70
2023-07-18T19:22:34.638Z,0.70
2023-07-18T19:25:01.240Z,0.50
2023-07-18T19:27:27.922Z,0.80
2023-07-18T19:29:54.507Z,0.60
2023-07-18T19:32:21.162Z,0.70
2023-07-18T19:34:47.696Z,0.68
2023-07-18T19:37:14.493Z,0.65
2023-07-18T19:39:41.073Z,0.73
2023-07-18T19:42:08.017Z,0.63
2023-07-18T19:44:35.547Z,1.00
2023-07-18T19:47:02.545Z,0.57
2023-07-18T19:49:29.453Z,0.75
2023-07-18T19:51:57.619Z,0.93
2023-07-18T19:54:27.792Z,0.70
2023-07-18T19:56:56.738Z,0.80
2023-07-18T19:59:24.279Z,0.60
2023-07-18T20:01:51.220Z,0.70
2023-07-18T20:04:18.094Z,0.73
2023-07-18T20:06:44.894Z,0.85
2023-07-18T20:09:11.454Z,0.90
2023-07-18T20:11:38.053Z,0.70
2023-07-18T20:14:04.534Z,0.77
2023-07-18T20:16:31.849Z,0.98
2023-07-18T20:19:02.399Z,0.65
2023-07-18T20:21:30.282Z,0.63
2023-07-18T20:23:57.049Z,0.80
2023-07-18T20:26:23.855Z,0.70
2023-07-18T20:28:50.679Z,0.80
2023-07-18T20:31:17.704Z,0.88
2023-07-18T20:33:44.408Z,0.98
2023-07-18T20:36:11.135Z,1.00
2023-07-18T20:38:37.649Z,2.03
2023-07-18T20:41:06.723Z,1.13
2023-07-18T20:43:35.171Z,0.80
2023-07-18T20:46:03.578Z,1.13
2023-07-18T20:48:33.447Z,0.90
2023-07-18T20:51:00.288Z,1.50
2023-07-18T20:53:28.343Z,1.02
2023-07-18T20:55:54.978Z,1.00
2023-07-18T20:58:21.608Z,1.35
2023-07-18T21:00:48.541Z,1.00
2023-07-18T21:03:17.044Z,1.17
2023-07-18T21:05:43.828Z,0.88
2023-07-18T21:08:10.362Z,0.60
2023-07-18T21:10:37.257Z,1.00
2023-07-18T21:13:05.430Z,1.05
2023-07-18T21:15:33.824Z,1.15
2023-07-18T21:18:00.766Z,1.35
2023-07-18T21:20:27.395Z,0.90
2023-07-18T21:22:53.894Z,0.80
2023-07-18T21:25:20.426Z,1.33
2023-07-18T21:27:46.948Z,1.00
2023-07-18T21:30:13.480Z,1.08
2023-07-18T21:32:40.167Z,1.00
2023-07-18T21:35:07.573Z,1.20
2023-07-18T21:37:34.115Z,1.10
2023-07-18T21:40:01.040Z,1.25
2023-07-18T21:42:27.640Z,0.90
2023-07-18T21:44:54.260Z,1.10
2023-07-18T21:47:21.239Z,1.10
2023-07-18T21:49:48.019Z,0.80
2023-07-18T21:52:14.974Z,1.00
2023-07-18T21:54:41.585Z,1.10
2023-07-18T21:57:08.209Z,1.25
2023-07-18T21:59:34.700Z,1.17
2023-07-18T22:02:01.222Z,1.13
2023-07-18T22:04:27.748Z,1.30
2023-07-18T22:06:54.829Z,1.40
2023-07-18T22:09:21.397Z,1.00
2023-07-18T22:11:48.031Z,1.30
2023-07-18T22:14:14.570Z,1.08
2023-07-18T22:16:41.199Z,1.13
2023-07-18T22:19:07.728Z,1.55
2023-07-18T22:21:34.195Z,1.35
2023-07-18T22:24:00.656Z,1.48
2023-07-18T22:26:27.233Z,1.40
2023-07-18T22:28:53.788Z,1.15
2023-07-18T22:31:20.442Z,1.10
2023-07-18T22:33:47.218Z,1.38
2023-07-18T22:36:13.789Z,0.98
2023-07-18T22:38:42.966Z,0.88
2023-07-18T22:41:09.461Z,1.33
2023-07-18T22:43:37.147Z,1.00
2023-07-18T22:46:03.981Z,1.10
2023-07-18T22:48:30.585Z,1.35
2023-07-18T22:50:59.954Z,1.30
2023-07-18T22:53:26.420Z,1.15
2023-07-18T22:55:52.887Z,1.20
2023-07-18T22:58:19.387Z,1.05
2023-07-18T23:00:45.932Z,1.08
2023-07-18T23:03:12.746Z,1.35
2023-07-18T23:05:44.351Z,1.25
2023-07-18T23:08:11.224Z,1.17
2023-07-18T23:10:37.749Z,1.20
2023-07-18T23:13:04.267Z,1.73
2023-07-18T23:15:30.719Z,1.40
2023-07-18T23:17:57.515Z,0.70
2023-07-18T23:20:24.081Z,1.15
2023-07-18T23:22:50.732Z,1.20
2023-07-18T23:25:17.415Z,1.15
2023-07-18T23:27:44.037Z,1.65
2023-07-18T23:30:11.104Z,1.10
2023-07-18T23:32:37.835Z,1.80
2023-07-18T23:35:04.704Z,1.25
2023-07-18T23:37:31.297Z,1.85
2023-07-18T23:39:57.881Z,1.63
2023-07-18T23:42:24.319Z,1.85
2023-07-18T23:44:50.802Z,1.45
2023-07-18T23:47:17.318Z,1.50
2023-07-18T23:49:43.764Z,1.80
2023-07-18T23:52:10.298Z,1.27
2023-07-18T23:54:36.807Z,1.05
2023-07-18T23:57:03.607Z,1.30
2023-07-18T23:59:30.072Z,1.20
